sensor_id;sensor_type;location;lat;lon;timestamp;P1;durP1;ratioP1;P2;durP2;ratioP2
1026;SDS011;502;48.746;9.214;2022-09-21T00:01:07;7.23;;;5.90;;
1026;SDS011;502;48.746;9.214;2022-09-21T00:03:35;7.97;;;5.90;;
1026;SDS011;502;48.746;9.214;2022-09-21T00:06:02;9.17;;;5.93;;
1026;SDS011;502;48.746;9.214;2022-09-21T00:08:30;7.93;;;5.60;;
1026;SDS011;502;48.746;9.214;2022-09-21T00:10:57;6.97;;;6.27;;
1026;SDS011;502;48.746;9.214;2022-09-21T00:13:24;9.03;;;5.70;;
1026;SDS011;502;48.746;9.214;2022-09-21T00:15:52;7.40;;;5.07;;
1026;SDS011;502;48.746;9.214;2022-09-21T00:18:19;7.20;;;6.23;;
1026;SDS011;502;48.746;9.214;2022-09-21T00:20:46;6.33;;;5.73;;
1026;SDS011;502;48.746;9.214;2022-09-21T00:23:13;7.63;;;5.50;;
1026;SDS011;502;48.746;9.214;2022-09-21T00:25:41;6.77;;;6.07;;
1026;SDS011;502;48.746;9.214;2022-09-21T00:28:08;9.23;;;6.03;;
1026;SDS011;502;48.746;9.214;2022-09-21T00:30:34;8.00;;;5.60;;
1026;SDS011;502;48.746;9.214;2022-09-21T00:33:01;13.47;;;7.90;;
1026;SDS011;502;48.746;9.214;2022-09-21T00:35:27;8.10;;;6.30;;
1026;SDS011;502;48.746;9.214;2022-09-21T00:37:54;6.47;;;5.17;;
1026;SDS011;502;48.746;9.214;2022-09-21T00:40:21;6.10;;;5.23;;
1026;SDS011;502;48.746;9.214;2022-09-21T00:42:49;7.30;;;5.80;;
1026;SDS011;502;48.746;9.214;2022-09-21T00:45:15;6.20;;;5.03;;
1026;SDS011;502;48.746;9.214;2022-09-21T00:47:46;5.87;;;5.03;;
1026;SDS011;502;48.746;9.214;2022-09-21T00:50:14;6.40;;;5.30;;
1026;SDS011;502;48.746;9.214;2022-09-21T00:52:44;8.60;;;6.03;;
1026;SDS011;502;48.746;9.214;2022-09-21T00:55:14;7.60;;;5.73;;
1026;SDS011;502;48.746;9.214;2022-09-21T00:57:42;7.20;;;5.93;;
1026;SDS011;502;48.746;9.214;2022-09-21T01:00:11;6.60;;;5.40;;
1026;SDS011;502;48.746;9.214;2022-09-21T01:02:38;8.50;;;5.53;;
1026;SDS011;502;48.746;9.214;2022-09-21T01:05:06;8.70;;;5.97;;
1026;SDS011;502;48.746;9.214;2022-09-21T01:07:34;6.13;;;5.20;;
1026;SDS011;502;48.746;9.214;2022-09-21T01:10:03;6.53;;;5.60;;
1026;SDS011;502;48.746;9.214;2022-09-21T01:12:37;5.90;;;4.67;;
1026;SDS011;502;48.746;9.214;2022-09-21T01:15:18;7.47;;;5.30;;
1026;SDS011;502;48.746;9.214;2022-09-21T01:17:50;5.70;;;5.00;;
1026;SDS011;502;48.746;9.214;2022-09-21T01:20:28;8.00;;;6.10;;
1026;SDS011;502;48.746;9.214;2022-09-21T01:23:36;7.23;;;5.80;;
1026;SDS011;502;48.746;9.214;2022-09-21T01:26:32;5.70;;;4.73;;
1026;SDS011;502;48.746;9.214;2022-09-21T01:29:13;6.80;;;5.47;;
1026;SDS011;502;48.746;9.214;2022-09-21T01:31:45;6.00;;;4.87;;
1026;SDS011;502;48.746;9.214;2022-09-21T01:34:20;7.70;;;6.10;;
1026;SDS011;502;48.746;9.214;2022-09-21T01:36:49;7.20;;;5.87;;
1026;SDS011;502;48.746;9.214;2022-09-21T01:39:18;10.77;;;6.50;;
1026;SDS011;502;48.746;9.214;2022-09-21T01:41:46;7.33;;;5.90;;
1026;SDS011;502;48.746;9.214;2022-09-21T01:44:18;8.77;;;7.03;;
1026;SDS011;502;48.746;9.214;2022-09-21T01:46:46;8.43;;;6.50;;
1026;SDS011;502;48.746;9.214;2022-09-21T01:49:14;9.53;;;6.83;;
1026;SDS011;502;48.746;9.214;2022-09-21T01:51:44;8.10;;;6.40;;
1026;SDS011;502;48.746;9.214;2022-09-21T01:54:14;9.97;;;7.03;;
1026;SDS011;502;48.746;9.214;2022-09-21T01:56:45;10.93;;;6.47;;
1026;SDS011;502;48.746;9.214;2022-09-21T01:59:18;9.50;;;7.30;;
1026;SDS011;502;48.746;9.214;2022-09-21T02:01:48;11.10;;;7.10;;
1026;SDS011;502;48.746;9.214;2022-09-21T02:04:17;9.60;;;6.80;;
1026;SDS011;502;48.746;9.214;2022-09-21T02:06:45;8.50;;;6.20;;
1026;SDS011;502;48.746;9.214;2022-09-21T02:09:12;8.50;;;7.00;;
1026;SDS011;502;48.746;9.214;2022-09-21T02:11:39;9.47;;;6.97;;
1026;SDS011;502;48.746;9.214;2022-09-21T02:14:08;8.37;;;6.43;;
1026;SDS011;502;48.746;9.214;2022-09-21T02:16:37;6.70;;;6.00;;
1026;SDS011;502;48.746;9.214;2022-09-21T02:19:10;7.97;;;6.50;;
1026;SDS011;502;48.746;9.214;2022-09-21T02:21:42;9.50;;;6.63;;
1026;SDS011;502;48.746;9.214;2022-09-21T02:24:16;6.70;;;5.67;;
1026;SDS011;502;48.746;9.214;2022-09-21T02:26:49;6.87;;;5.83;;
1026;SDS011;502;48.746;9.214;2022-09-21T02:29:19;7.13;;;5.80;;
1026;SDS011;502;48.746;9.214;2022-09-21T02:31:51;7.70;;;6.77;;
1026;SDS011;502;48.746;9.214;2022-09-21T02:34:23;9.07;;;5.90;;
1026;SDS011;502;48.746;9.214;2022-09-21T02:36:54;6.67;;;5.70;;
1026;SDS011;502;48.746;9.214;2022-09-21T02:39:25;6.97;;;6.27;;
1026;SDS011;502;48.746;9.214;2022-09-21T02:41:58;7.27;;;6.23;;
1026;SDS011;502;48.746;9.214;2022-09-21T02:44:28;7.90;;;5.90;;
1026;SDS011;502;48.746;9.214;2022-09-21T02:47:00;6.70;;;5.53;;
1026;SDS011;502;48.746;9.214;2022-09-21T02:49:30;9.07;;;6.13;;
1026;SDS011;502;48.746;9.214;2022-09-21T02:52:00;8.57;;;6.17;;
1026;SDS011;502;48.746;9.214;2022-09-21T02:54:29;6.17;;;5.57;;
1026;SDS011;502;48.746;9.214;2022-09-21T02:56:58;7.90;;;6.13;;
1026;SDS011;502;48.746;9.214;2022-09-21T02:59:26;10.17;;;6.80;;
1026;SDS011;502;48.746;9.214;2022-09-21T03:01:53;9.90;;;7.53;;
1026;SDS011;502;48.746;9.214;2022-09-21T03:04:21;10.10;;;8.77;;
1026;SDS011;502;48.746;9.214;2022-09-21T03:06:48;9.43;;;8.47;;
1026;SDS011;502;48.746;9.214;2022-09-21T03:09:15;10.70;;;8.57;;
1026;SDS011;502;48.746;9.214;2022-09-21T03:11:42;13.33;;;9.87;;
1026;SDS011;502;48.746;9.214;2022-09-21T03:14:09;12.70;;;9.97;;
1026;SDS011;502;48.746;9.214;2022-09-21T03:16:36;13.33;;;10.77;;
1026;SDS011;502;48.746;9.214;2022-09-21T03:19:04;11.90;;;10.00;;
1026;SDS011;502;48.746;9.214;2022-09-21T03:21:32;10.33;;;8.83;;
1026;SDS011;502;48.746;9.214;2022-09-21T03:23:58;12.10;;;9.10;;
1026;SDS011;502;48.746;9.214;2022-09-21T03:26:25;10.30;;;8.70;;
1026;SDS011;502;48.746;9.214;2022-09-21T03:28:52;9.90;;;7.77;;
1026;SDS011;502;48.746;9.214;2022-09-21T03:31:18;9.40;;;7.53;;
1026;SDS011;502;48.746;9.214;2022-09-21T03:33:46;10.37;;;8.53;;
1026;SDS011;502;48.746;9.214;2022-09-21T03:36:13;8.60;;;6.90;;
1026;SDS011;502;48.746;9.214;2022-09-21T03:38:41;9.60;;;7.67;;
1026;SDS011;502;48.746;9.214;2022-09-21T03:41:08;13.13;;;9.73;;
1026;SDS011;502;48.746;9.214;2022-09-21T03:43:35;14.30;;;9.10;;
1026;SDS011;502;48.746;9.214;2022-09-21T03:46:02;11.57;;;10.37;;
1026;SDS011;502;48.746;9.214;2022-09-21T03:48:28;12.70;;;10.60;;
1026;SDS011;502;48.746;9.214;2022-09-21T03:50:56;12.47;;;9.77;;
1026;SDS011;502;48.746;9.214;2022-09-21T03:53:23;13.17;;;11.53;;
1026;SDS011;502;48.746;9.214;2022-09-21T03:55:51;14.40;;;11.27;;
1026;SDS011;502;48.746;9.214;2022-09-21T03:58:18;16.70;;;10.70;;
1026;SDS011;502;48.746;9.214;2022-09-21T04:00:44;13.40;;;11.27;;
1026;SDS011;502;48.746;9.214;2022-09-21T04:03:11;13.43;;;10.53;;
1026;SDS011;502;48.746;9.214;2022-09-21T04:05:38;11.53;;;10.17;;
1026;SDS011;502;48.746;9.214;2022-09-21T04:08:04;11.17;;;9.57;;
1026;SDS011;502;48.746;9.214;2022-09-21T04:10:32;10.97;;;8.40;;
1026;SDS011;502;48.746;9.214;2022-09-21T04:13:00;10.93;;;8.20;;
1026;SDS011;502;48.746;9.214;2022-09-21T04:15:27;11.03;;;9.20;;
1026;SDS011;502;48.746;9.214;2022-09-21T04:17:54;10.30;;;8.93;;
1026;SDS011;502;48.746;9.214;2022-09-21T04:20:21;12.23;;;7.87;;
1026;SDS011;502;48.746;9.214;2022-09-21T04:22:48;11.63;;;10.03;;
1026;SDS011;502;48.746;9.214;2022-09-21T04:25:15;10.07;;;8.37;;
1026;SDS011;502;48.746;9.214;2022-09-21T04:27:42;12.70;;;9.10;;
1026;SDS011;502;48.746;9.214;2022-09-21T04:30:11;13.30;;;10.33;;
1026;SDS011;502;48.746;9.214;2022-09-21T04:32:38;12.07;;;8.90;;
1026;SDS011;502;48.746;9.214;2022-09-21T04:35:05;11.23;;;9.20;;
1026;SDS011;502;48.746;9.214;2022-09-21T04:37:32;12.77;;;9.60;;
1026;SDS011;502;48.746;9.214;2022-09-21T04:39:59;10.20;;;9.20;;
1026;SDS011;502;48.746;9.214;2022-09-21T04:42:26;12.40;;;9.40;;
1026;SDS011;502;48.746;9.214;2022-09-21T04:44:53;12.13;;;9.80;;
1026;SDS011;502;48.746;9.214;2022-09-21T04:47:21;12.53;;;10.70;;
1026;SDS011;502;48.746;9.214;2022-09-21T04:49:49;13.17;;;11.37;;
1026;SDS011;502;48.746;9.214;2022-09-21T04:52:16;13.00;;;11.17;;
1026;SDS011;502;48.746;9.214;2022-09-21T04:54:43;12.60;;;10.57;;
1026;SDS011;502;48.746;9.214;2022-09-21T04:57:10;11.67;;;10.37;;
1026;SDS011;502;48.746;9.214;2022-09-21T04:59:37;12.27;;;10.40;;
1026;SDS011;502;48.746;9.214;2022-09-21T05:02:03;13.73;;;10.67;;
1026;SDS011;502;48.746;9.214;2022-09-21T05:04:31;12.80;;;10.63;;
1026;SDS011;502;48.746;9.214;2022-09-21T05:06:58;14.33;;;10.53;;
1026;SDS011;502;48.746;9.214;2022-09-21T05:09:25;11.60;;;9.70;;
1026;SDS011;502;48.746;9.214;2022-09-21T05:12:09;13.83;;;10.00;;
1026;SDS011;502;48.746;9.214;2022-09-21T05:14:35;14.93;;;9.57;;
1026;SDS011;502;48.746;9.214;2022-09-21T05:17:02;11.03;;;9.40;;
1026;SDS011;502;48.746;9.214;2022-09-21T05:19:29;11.00;;;9.67;;
1026;SDS011;502;48.746;9.214;2022-09-21T05:21:57;10.67;;;9.50;;
1026;SDS011;502;48.746;9.214;2022-09-21T05:24:23;12.03;;;10.07;;
1026;SDS011;502;48.746;9.214;2022-09-21T05:26:50;12.00;;;10.20;;
1026;SDS011;502;48.746;9.214;2022-09-21T05:29:17;10.73;;;9.40;;
1026;SDS011;502;48.746;9.214;2022-09-21T05:31:45;14.47;;;10.17;;
1026;SDS011;502;48.746;9.214;2022-09-21T05:34:20;12.20;;;10.50;;
1026;SDS011;502;48.746;9.214;2022-09-21T05:36:59;13.43;;;9.80;;
1026;SDS011;502;48.746;9.214;2022-09-21T05:39:28;12.80;;;10.67;;
1026;SDS011;502;48.746;9.214;2022-09-21T05:41:55;14.27;;;11.30;;
1026;SDS011;502;48.746;9.214;2022-09-21T05:44:22;14.40;;;10.30;;
1026;SDS011;502;48.746;9.214;2022-09-21T05:46:51;12.60;;;10.70;;
1026;SDS011;502;48.746;9.214;2022-09-21T05:49:25;13.47;;;10.10;;
1026;SDS011;502;48.746;9.214;2022-09-21T05:52:00;11.80;;;9.67;;
1026;SDS011;502;48.746;9.214;2022-09-21T05:54:33;10.50;;;8.80;;
1026;SDS011;502;48.746;9.214;2022-09-21T05:57:09;10.83;;;8.77;;
1026;SDS011;502;48.746;9.214;2022-09-21T05:59:47;11.17;;;8.70;;
1026;SDS011;502;48.746;9.214;2022-09-21T06:02:22;9.90;;;8.67;;
1026;SDS011;502;48.746;9.214;2022-09-21T06:04:55;11.90;;;9.17;;
1026;SDS011;502;48.746;9.214;2022-09-21T06:07:24;13.60;;;8.97;;
1026;SDS011;502;48.746;9.214;2022-09-21T06:09:51;11.57;;;9.37;;
1026;SDS011;502;48.746;9.214;2022-09-21T06:12:18;11.83;;;9.70;;
1026;SDS011;502;48.746;9.214;2022-09-21T06:14:45;9.00;;;8.10;;
1026;SDS011;502;48.746;9.214;2022-09-21T06:17:11;12.30;;;8.40;;
1026;SDS011;502;48.746;9.214;2022-09-21T06:19:38;9.97;;;7.37;;
1026;SDS011;502;48.746;9.214;2022-09-21T06:22:05;9.47;;;8.43;;
1026;SDS011;502;48.746;9.214;2022-09-21T06:24:33;10.17;;;7.80;;
1026;SDS011;502;48.746;9.214;2022-09-21T06:26:59;10.47;;;8.30;;
1026;SDS011;502;48.746;9.214;2022-09-21T06:29:26;10.30;;;7.30;;
1026;SDS011;502;48.746;9.214;2022-09-21T06:31:53;9.33;;;7.47;;
1026;SDS011;502;48.746;9.214;2022-09-21T06:34:19;8.70;;;7.57;;
1026;SDS011;502;48.746;9.214;2022-09-21T06:36:46;9.57;;;6.90;;
1026;SDS011;502;48.746;9.214;2022-09-21T06:39:13;8.90;;;7.80;;
1026;SDS011;502;48.746;9.214;2022-09-21T06:41:41;8.03;;;7.20;;
1026;SDS011;502;48.746;9.214;2022-09-21T06:44:08;8.83;;;7.33;;
1026;SDS011;502;48.746;9.214;2022-09-21T06:46:35;8.50;;;6.60;;
1026;SDS011;502;48.746;9.214;2022-09-21T06:49:02;7.97;;;6.80;;
1026;SDS011;502;48.746;9.214;2022-09-21T06:51:28;9.07;;;7.50;;
1026;SDS011;502;48.746;9.214;2022-09-21T06:53:55;8.67;;;7.70;;
1026;SDS011;502;48.746;9.214;2022-09-21T06:56:23;8.00;;;7.17;;
1026;SDS011;502;48.746;9.214;2022-09-21T06:58:51;8.30;;;6.63;;
1026;SDS011;502;48.746;9.214;2022-09-21T07:01:18;10.00;;;6.03;;
1026;SDS011;502;48.746;9.214;2022-09-21T07:03:47;7.23;;;6.53;;
1026;SDS011;502;48.746;9.214;2022-09-21T07:06:15;6.40;;;5.80;;
1026;SDS011;502;48.746;9.214;2022-09-21T07:08:41;7.60;;;6.90;;
1026;SDS011;502;48.746;9.214;2022-09-21T07:11:09;8.30;;;6.67;;
1026;SDS011;502;48.746;9.214;2022-09-21T07:13:36;9.10;;;6.40;;
1026;SDS011;502;48.746;9.214;2022-09-21T07:16:04;8.33;;;7.27;;
1026;SDS011;502;48.746;9.214;2022-09-21T07:18:31;9.70;;;6.67;;
1026;SDS011;502;48.746;9.214;2022-09-21T07:21:00;7.27;;;5.70;;
1026;SDS011;502;48.746;9.214;2022-09-21T07:23:28;7.10;;;6.40;;
1026;SDS011;502;48.746;9.214;2022-09-21T07:25:54;6.60;;;5.47;;
1026;SDS011;502;48.746;9.214;2022-09-21T07:28:21;8.70;;;6.47;;
1026;SDS011;502;48.746;9.214;2022-09-21T07:30:48;7.60;;;5.30;;
1026;SDS011;502;48.746;9.214;2022-09-21T07:33:16;6.20;;;5.60;;
1026;SDS011;502;48.746;9.214;2022-09-21T07:35:49;6.87;;;4.40;;
1026;SDS011;502;48.746;9.214;2022-09-21T07:38:16;6.47;;;4.93;;
1026;SDS011;502;48.746;9.214;2022-09-21T07:40:43;5.30;;;4.47;;
1026;SDS011;502;48.746;9.214;2022-09-21T07:43:09;4.43;;;3.80;;
1026;SDS011;502;48.746;9.214;2022-09-21T07:45:36;5.20;;;3.70;;
1026;SDS011;502;48.746;9.214;2022-09-21T07:48:03;5.50;;;4.03;;
1026;SDS011;502;48.746;9.214;2022-09-21T07:50:31;5.13;;;3.87;;
1026;SDS011;502;48.746;9.214;2022-09-21T07:52:58;4.53;;;3.80;;
1026;SDS011;502;48.746;9.214;2022-09-21T07:55:25;6.30;;;4.07;;
1026;SDS011;502;48.746;9.214;2022-09-21T07:57:52;4.30;;;3.73;;
1026;SDS011;502;48.746;9.214;2022-09-21T08:00:36;4.23;;;3.70;;
1026;SDS011;502;48.746;9.214;2022-09-21T08:03:03;4.57;;;3.50;;
1026;SDS011;502;48.746;9.214;2022-09-21T08:05:31;4.10;;;3.70;;
1026;SDS011;502;48.746;9.214;2022-09-21T08:07:58;5.07;;;4.13;;
1026;SDS011;502;48.746;9.214;2022-09-21T08:10:25;5.40;;;3.50;;
1026;SDS011;502;48.746;9.214;2022-09-21T08:12:53;10.50;;;4.03;;
1026;SDS011;502;48.746;9.214;2022-09-21T08:15:20;8.07;;;3.67;;
1026;SDS011;502;48.746;9.214;2022-09-21T08:17:46;4.33;;;3.83;;
1026;SDS011;502;48.746;9.214;2022-09-21T08:20:14;3.23;;;2.87;;
1026;SDS011;502;48.746;9.214;2022-09-21T08:22:42;4.37;;;3.97;;
1026;SDS011;502;48.746;9.214;2022-09-21T08:25:09;4.40;;;3.57;;
1026;SDS011;502;48.746;9.214;2022-09-21T08:27:35;3.20;;;2.90;;
1026;SDS011;502;48.746;9.214;2022-09-21T08:30:05;2.17;;;1.97;;
1026;SDS011;502;48.746;9.214;2022-09-21T08:32:32;2.80;;;2.47;;
1026;SDS011;502;48.746;9.214;2022-09-21T08:34:59;4.60;;;2.30;;
1026;SDS011;502;48.746;9.214;2022-09-21T08:37:26;3.17;;;2.80;;
1026;SDS011;502;48.746;9.214;2022-09-21T08:39:55;5.17;;;2.53;;
1026;SDS011;502;48.746;9.214;2022-09-21T08:42:29;3.90;;;2.63;;
1026;SDS011;502;48.746;9.214;2022-09-21T08:45:05;3.47;;;2.57;;
1026;SDS011;502;48.746;9.214;2022-09-21T08:47:37;2.27;;;2.03;;
1026;SDS011;502;48.746;9.214;2022-09-21T08:50:11;2.70;;;2.50;;
1026;SDS011;502;48.746;9.214;2022-09-21T08:52:53;5.30;;;3.20;;
1026;SDS011;502;48.746;9.214;2022-09-21T08:55:25;3.30;;;3.00;;
1026;SDS011;502;48.746;9.214;2022-09-21T08:57:52;2.80;;;2.40;;
1026;SDS011;502;48.746;9.214;2022-09-21T09:00:19;4.60;;;2.63;;
1026;SDS011;502;48.746;9.214;2022-09-21T09:05:45;2.30;;;1.93;;
1026;SDS011;502;48.746;9.214;2022-09-21T09:08:29;2.83;;;2.13;;
1026;SDS011;502;48.746;9.214;2022-09-21T09:11:07;2.90;;;1.97;;
1026;SDS011;502;48.746;9.214;2022-09-21T09:13:49;2.43;;;1.83;;
1026;SDS011;502;48.746;9.214;2022-09-21T09:16:27;3.50;;;2.47;;
1026;SDS011;502;48.746;9.214;2022-09-21T09:19:10;3.47;;;2.27;;
1026;SDS011;502;48.746;9.214;2022-09-21T09:21:42;3.53;;;2.23;;
1026;SDS011;502;48.746;9.214;2022-09-21T09:24:09;5.93;;;2.67;;
1026;SDS011;502;48.746;9.214;2022-09-21T09:26:42;3.57;;;2.00;;
1026;SDS011;502;48.746;9.214;2022-09-21T09:29:12;3.60;;;1.83;;
1026;SDS011;502;48.746;9.214;2022-09-21T09:31:43;3.93;;;2.03;;
1026;SDS011;502;48.746;9.214;2022-09-21T09:34:11;3.53;;;2.50;;
1026;SDS011;502;48.746;9.214;2022-09-21T09:36:42;2.50;;;1.70;;
1026;SDS011;502;48.746;9.214;2022-09-21T09:39:12;2.97;;;1.70;;
1026;SDS011;502;48.746;9.214;2022-09-21T09:41:48;4.33;;;2.03;;
1026;SDS011;502;48.746;9.214;2022-09-21T09:44:39;2.93;;;1.70;;
1026;SDS011;502;48.746;9.214;2022-09-21T09:47:16;2.20;;;1.70;;
1026;SDS011;502;48.746;9.214;2022-09-21T09:49:52;2.30;;;1.77;;
1026;SDS011;502;48.746;9.214;2022-09-21T09:52:25;3.70;;;2.10;;
1026;SDS011;502;48.746;9.214;2022-09-21T09:54:51;3.20;;;1.83;;
1026;SDS011;502;48.746;9.214;2022-09-21T09:57:23;2.37;;;1.70;;
1026;SDS011;502;48.746;9.214;2022-09-21T09:59:53;2.90;;;2.60;;
1026;SDS011;502;48.746;9.214;2022-09-21T10:02:22;4.50;;;2.90;;
1026;SDS011;502;48.746;9.214;2022-09-21T10:04:54;2.73;;;2.40;;
1026;SDS011;502;48.746;9.214;2022-09-21T10:07:34;3.17;;;2.20;;
1026;SDS011;502;48.746;9.214;2022-09-21T10:10:02;4.50;;;2.47;;
1026;SDS011;502;48.746;9.214;2022-09-21T10:12:30;3.10;;;2.60;;
1026;SDS011;502;48.746;9.214;2022-09-21T10:14:57;4.07;;;2.60;;
1026;SDS011;502;48.746;9.214;2022-09-21T10:17:25;4.33;;;2.70;;
1026;SDS011;502;48.746;9.214;2022-09-21T10:19:57;3.53;;;2.80;;
1026;SDS011;502;48.746;9.214;2022-09-21T10:22:25;3.87;;;3.00;;
1026;SDS011;502;48.746;9.214;2022-09-21T10:24:52;4.13;;;2.90;;
1026;SDS011;502;48.746;9.214;2022-09-21T10:27:20;4.40;;;2.50;;
1026;SDS011;502;48.746;9.214;2022-09-21T10:29:50;2.50;;;2.27;;
1026;SDS011;502;48.746;9.214;2022-09-21T10:32:18;2.60;;;2.20;;
1026;SDS011;502;48.746;9.214;2022-09-21T10:35:11;3.90;;;2.20;;
1026;SDS011;502;48.746;9.214;2022-09-21T10:37:40;5.40;;;2.70;;
1026;SDS011;502;48.746;9.214;2022-09-21T10:40:21;2.67;;;2.00;;
1026;SDS011;502;48.746;9.214;2022-09-21T10:42:49;2.43;;;1.80;;
1026;SDS011;502;48.746;9.214;2022-09-21T10:45:19;2.80;;;1.83;;
1026;SDS011;502;48.746;9.214;2022-09-21T10:47:47;3.33;;;2.93;;
1026;SDS011;502;48.746;9.214;2022-09-21T10:50:20;2.37;;;1.97;;
1026;SDS011;502;48.746;9.214;2022-09-21T10:52:48;6.03;;;2.40;;
1026;SDS011;502;48.746;9.214;2022-09-21T10:55:17;2.00;;;1.53;;
1026;SDS011;502;48.746;9.214;2022-09-21T10:57:45;1.20;;;0.83;;
1026;SDS011;502;48.746;9.214;2022-09-21T11:00:26;1.60;;;1.10;;
1026;SDS011;502;48.746;9.214;2022-09-21T11:03:00;1.33;;;1.00;;
1026;SDS011;502;48.746;9.214;2022-09-21T11:05:31;1.40;;;1.10;;
1026;SDS011;502;48.746;9.214;2022-09-21T11:08:00;2.20;;;1.13;;
1026;SDS011;502;48.746;9.214;2022-09-21T11:10:29;1.77;;;0.97;;
1026;SDS011;502;48.746;9.214;2022-09-21T11:13:15;1.67;;;0.97;;
1026;SDS011;502;48.746;9.214;2022-09-21T11:15:50;1.73;;;1.20;;
1026;SDS011;502;48.746;9.214;2022-09-21T11:18:21;1.07;;;0.77;;
1026;SDS011;502;48.746;9.214;2022-09-21T11:20:51;1.20;;;1.00;;
1026;SDS011;502;48.746;9.214;2022-09-21T11:23:35;1.50;;;1.00;;
1026;SDS011;502;48.746;9.214;2022-09-21T11:26:09;1.20;;;1.03;;
1026;SDS011;502;48.746;9.214;2022-09-21T11:28:38;2.40;;;1.10;;
1026;SDS011;502;48.746;9.214;2022-09-21T11:31:17;1.80;;;1.17;;
1026;SDS011;502;48.746;9.214;2022-09-21T11:36:47;3.40;;;1.20;;
1026;SDS011;502;48.746;9.214;2022-09-21T11:39:23;1.57;;;1.10;;
1026;SDS011;502;48.746;9.214;2022-09-21T11:41:59;1.10;;;1.00;;
1026;SDS011;502;48.746;9.214;2022-09-21T11:44:36;1.47;;;0.90;;
1026;SDS011;502;48.746;9.214;2022-09-21T11:47:19;2.37;;;0.90;;
1026;SDS011;502;48.746;9.214;2022-09-21T11:50:09;2.43;;;1.10;;
1026;SDS011;502;48.746;9.214;2022-09-21T11:52:55;1.80;;;0.90;;
1026;SDS011;502;48.746;9.214;2022-09-21T11:55:41;1.33;;;0.77;;
1026;SDS011;502;48.746;9.214;2022-09-21T11:58:19;1.40;;;0.97;;
1026;SDS011;502;48.746;9.214;2022-09-21T12:00:52;2.00;;;0.90;;
1026;SDS011;502;48.746;9.214;2022-09-21T12:03:29;1.87;;;1.10;;
1026;SDS011;502;48.746;9.214;2022-09-21T12:06:05;1.50;;;0.80;;
1026;SDS011;502;48.746;9.214;2022-09-21T12:08:49;2.20;;;1.20;;
1026;SDS011;502;48.746;9.214;2022-09-21T12:11:24;1.33;;;1.00;;
1026;SDS011;502;48.746;9.214;2022-09-21T12:13:57;1.23;;;0.80;;
1026;SDS011;502;48.746;9.214;2022-09-21T12:16:28;1.77;;;1.17;;
1026;SDS011;502;48.746;9.214;2022-09-21T12:19:02;1.23;;;0.80;;
1026;SDS011;502;48.746;9.214;2022-09-21T12:21:33;4.23;;;1.20;;
1026;SDS011;502;48.746;9.214;2022-09-21T12:24:01;3.23;;;1.30;;
1026;SDS011;502;48.746;9.214;2022-09-21T12:26:32;1.40;;;0.80;;
1026;SDS011;502;48.746;9.214;2022-09-21T12:29:03;1.37;;;0.83;;
1026;SDS011;502;48.746;9.214;2022-09-21T12:31:34;1.37;;;0.90;;
1026;SDS011;502;48.746;9.214;2022-09-21T12:34:08;1.20;;;0.80;;
1026;SDS011;502;48.746;9.214;2022-09-21T12:36:39;1.93;;;1.10;;
1026;SDS011;502;48.746;9.214;2022-09-21T12:39:10;6.10;;;0.93;;
1026;SDS011;502;48.746;9.214;2022-09-21T12:41:41;1.73;;;0.77;;
1026;SDS011;502;48.746;9.214;2022-09-21T12:44:19;1.20;;;0.80;;
1026;SDS011;502;48.746;9.214;2022-09-21T12:46:50;1.50;;;1.03;;
1026;SDS011;502;48.746;9.214;2022-09-21T12:49:23;2.40;;;1.53;;
1026;SDS011;502;48.746;9.214;2022-09-21T12:51:54;1.47;;;0.77;;
1026;SDS011;502;48.746;9.214;2022-09-21T12:54:25;1.27;;;0.63;;
1026;SDS011;502;48.746;9.214;2022-09-21T12:56:57;3.27;;;0.70;;
1026;SDS011;502;48.746;9.214;2022-09-21T12:59:29;0.90;;;0.70;;
1026;SDS011;502;48.746;9.214;2022-09-21T13:02:02;1.20;;;0.97;;
1026;SDS011;502;48.746;9.214;2022-09-21T13:04:52;1.67;;;0.93;;
1026;SDS011;502;48.746;9.214;2022-09-21T13:07:37;1.03;;;0.60;;
1026;SDS011;502;48.746;9.214;2022-09-21T13:10:28;2.77;;;0.90;;
1026;SDS011;502;48.746;9.214;2022-09-21T13:13:04;1.23;;;0.73;;
1026;SDS011;502;48.746;9.214;2022-09-21T13:15:40;2.47;;;0.97;;
1026;SDS011;502;48.746;9.214;2022-09-21T13:18:14;1.30;;;0.93;;
1026;SDS011;502;48.746;9.214;2022-09-21T13:20:44;1.53;;;1.07;;
1026;SDS011;502;48.746;9.214;2022-09-21T13:23:13;2.03;;;0.90;;
1026;SDS011;502;48.746;9.214;2022-09-21T13:25:42;1.00;;;0.60;;
1026;SDS011;502;48.746;9.214;2022-09-21T13:28:18;1.03;;;0.80;;
1026;SDS011;502;48.746;9.214;2022-09-21T13:30:48;1.40;;;0.90;;
1026;SDS011;502;48.746;9.214;2022-09-21T13:36:34;1.83;;;0.87;;
1026;SDS011;502;48.746;9.214;2022-09-21T13:39:03;0.90;;;0.60;;
1026;SDS011;502;48.746;9.214;2022-09-21T13:41:39;0.90;;;0.60;;
1026;SDS011;502;48.746;9.214;2022-09-21T13:44:17;2.77;;;0.97;;
1026;SDS011;502;48.746;9.214;2022-09-21T13:46:54;2.83;;;1.30;;
1026;SDS011;502;48.746;9.214;2022-09-21T13:49:23;1.10;;;0.73;;
1026;SDS011;502;48.746;9.214;2022-09-21T13:51:57;4.20;;;1.00;;
1026;SDS011;502;48.746;9.214;2022-09-21T13:54:26;2.80;;;1.00;;
1026;SDS011;502;48.746;9.214;2022-09-21T13:56:59;1.50;;;1.00;;
1026;SDS011;502;48.746;9.214;2022-09-21T13:59:31;1.60;;;1.20;;
1026;SDS011;502;48.746;9.214;2022-09-21T14:02:00;3.93;;;1.00;;
1026;SDS011;502;48.746;9.214;2022-09-21T14:04:28;1.40;;;1.00;;
1026;SDS011;502;48.746;9.214;2022-09-21T14:07:00;1.53;;;0.97;;
1026;SDS011;502;48.746;9.214;2022-09-21T14:09:30;1.70;;;1.00;;
1026;SDS011;502;48.746;9.214;2022-09-21T14:11:58;1.70;;;0.93;;
1026;SDS011;502;48.746;9.214;2022-09-21T14:14:38;2.80;;;1.20;;
1026;SDS011;502;48.746;9.214;2022-09-21T14:20:04;1.57;;;0.90;;
1026;SDS011;502;48.746;9.214;2022-09-21T14:22:52;1.73;;;1.23;;
1026;SDS011;502;48.746;9.214;2022-09-21T14:25:47;1.30;;;0.93;;
1026;SDS011;502;48.746;9.214;2022-09-21T14:28:15;1.73;;;1.33;;
1026;SDS011;502;48.746;9.214;2022-09-21T14:30:48;1.43;;;0.93;;
1026;SDS011;502;48.746;9.214;2022-09-21T14:36:07;1.13;;;0.83;;
1026;SDS011;502;48.746;9.214;2022-09-21T14:38:40;1.20;;;0.87;;
1026;SDS011;502;48.746;9.214;2022-09-21T14:41:12;1.60;;;1.10;;
1026;SDS011;502;48.746;9.214;2022-09-21T14:43:42;1.60;;;0.87;;
1026;SDS011;502;48.746;9.214;2022-09-21T14:46:23;1.80;;;1.30;;
1026;SDS011;502;48.746;9.214;2022-09-21T14:48:58;1.60;;;1.00;;
1026;SDS011;502;48.746;9.214;2022-09-21T14:51:35;1.40;;;1.10;;
1026;SDS011;502;48.746;9.214;2022-09-21T14:54:15;1.93;;;1.10;;
1026;SDS011;502;48.746;9.214;2022-09-21T14:56:54;1.10;;;0.70;;
1026;SDS011;502;48.746;9.214;2022-09-21T14:59:42;4.03;;;0.80;;
1026;SDS011;502;48.746;9.214;2022-09-21T15:02:16;1.50;;;1.03;;
1026;SDS011;502;48.746;9.214;2022-09-21T15:05:08;1.20;;;0.80;;
1026;SDS011;502;48.746;9.214;2022-09-21T15:07:41;2.80;;;1.00;;
1026;SDS011;502;48.746;9.214;2022-09-21T15:10:33;1.40;;;1.20;;
1026;SDS011;502;48.746;9.214;2022-09-21T15:13:22;0.90;;;0.60;;
1026;SDS011;502;48.746;9.214;2022-09-21T15:16:04;1.00;;;0.70;;
1026;SDS011;502;48.746;9.214;2022-09-21T15:18:43;1.10;;;0.70;;
1026;SDS011;502;48.746;9.214;2022-09-21T15:21:17;2.33;;;0.97;;
1026;SDS011;502;48.746;9.214;2022-09-21T15:23:48;1.20;;;0.90;;
1026;SDS011;502;48.746;9.214;2022-09-21T15:26:19;1.20;;;0.70;;
1026;SDS011;502;48.746;9.214;2022-09-21T15:28:52;2.97;;;1.37;;
1026;SDS011;502;48.746;9.214;2022-09-21T15:31:20;1.27;;;1.00;;
1026;SDS011;502;48.746;9.214;2022-09-21T15:33:46;1.10;;;0.70;;
1026;SDS011;502;48.746;9.214;2022-09-21T15:36:18;1.30;;;0.73;;
1026;SDS011;502;48.746;9.214;2022-09-21T15:38:46;1.80;;;0.90;;
1026;SDS011;502;48.746;9.214;2022-09-21T15:41:28;1.30;;;1.10;;
1026;SDS011;502;48.746;9.214;2022-09-21T15:44:05;1.10;;;0.80;;
1026;SDS011;502;48.746;9.214;2022-09-21T15:46:37;1.53;;;1.10;;
1026;SDS011;502;48.746;9.214;2022-09-21T15:49:08;2.20;;;0.90;;
1026;SDS011;502;48.746;9.214;2022-09-21T15:51:37;1.50;;;1.10;;
1026;SDS011;502;48.746;9.214;2022-09-21T15:54:06;1.80;;;0.90;;
1026;SDS011;502;48.746;9.214;2022-09-21T15:56:35;1.30;;;0.80;;
1026;SDS011;502;48.746;9.214;2022-09-21T15:59:05;6.13;;;1.13;;
1026;SDS011;502;48.746;9.214;2022-09-21T16:01:36;1.87;;;1.40;;
1026;SDS011;502;48.746;9.214;2022-09-21T16:04:06;1.20;;;0.90;;